sensor_id;sensor_type;location;lat;lon;timestamp;temperature;humidity
46217;DHT22;47258;59.424;13.482;2023-03-23T00:01:12;3.80;99.90
46217;DHT22;47258;59.424;13.482;2023-03-23T00:03:46;3.80;99.90
46217;DHT22;47258;59.424;13.482;2023-03-23T00:06:15;3.80;99.90
46217;DHT22;47258;59.424;13.482;2023-03-23T00:08:44;3.80;99.90
46217;DHT22;47258;59.424;13.482;2023-03-23T00:11:15;3.70;99.90
46217;DHT22;47258;59.424;13.482;2023-03-23T00:13:45;3.70;99.90
46217;DHT22;47258;59.424;13.482;2023-03-23T00:16:16;3.70;99.90
46217;DHT22;47258;59.424;13.482;2023-03-23T00:18:46;3.70;99.90
46217;DHT22;47258;59.424;13.482;2023-03-23T00:21:17;3.70;99.90
46217;DHT22;47258;59.424;13.482;2023-03-23T00:23:45;3.60;99.90
46217;DHT22;47258;59.424;13.482;2023-03-23T00:26:15;3.60;99.90
46217;DHT22;47258;59.424;13.482;2023-03-23T00:28:45;3.60;99.90
46217;DHT22;47258;59.424;13.482;2023-03-23T00:31:15;3.50;99.90
46217;DHT22;47258;59.424;13.482;2023-03-23T00:33:43;3.50;99.90
46217;DHT22;47258;59.424;13.482;2023-03-23T00:36:12;3.60;99.90
46217;DHT22;47258;59.424;13.482;2023-03-23T00:38:40;3.60;99.90
46217;DHT22;47258;59.424;13.482;2023-03-23T00:41:10;3.50;99.90
46217;DHT22;47258;59.424;13.482;2023-03-23T00:43:38;3.50;99.90
46217;DHT22;47258;59.424;13.482;2023-03-23T00:46:06;3.50;99.90
46217;DHT22;47258;59.424;13.482;2023-03-23T00:48:36;3.50;99.90
46217;DHT22;47258;59.424;13.482;2023-03-23T00:51:12;3.40;99.90
46217;DHT22;47258;59.424;13.482;2023-03-23T00:53:41;3.40;99.90
46217;DHT22;47258;59.424;13.482;2023-03-23T00:56:09;3.40;99.90
46217;DHT22;47258;59.424;13.482;2023-03-23T00:58:37;3.40;99.90
46217;DHT22;47258;59.424;13.482;2023-03-23T01:01:07;3.40;99.90
46217;DHT22;47258;59.424;13.482;2023-03-23T01:03:36;3.40;99.90
46217;DHT22;47258;59.424;13.482;2023-03-23T01:06:06;3.40;99.90
46217;DHT22;47258;59.424;13.482;2023-03-23T01:08:39;3.40;99.90
46217;DHT22;47258;59.424;13.482;2023-03-23T01:11:12;3.40;99.90
46217;DHT22;47258;59.424;13.482;2023-03-23T01:13:41;3.40;99.90
46217;DHT22;47258;59.424;13.482;2023-03-23T01:16:10;3.30;99.90
46217;DHT22;47258;59.424;13.482;2023-03-23T01:18:40;3.30;99.90
46217;DHT22;47258;59.424;13.482;2023-03-23T01:21:11;3.30;99.90
46217;DHT22;47258;59.424;13.482;2023-03-23T01:23:39;3.30;99.90
46217;DHT22;47258;59.424;13.482;2023-03-23T01:26:08;3.30;99.90
46217;DHT22;47258;59.424;13.482;2023-03-23T01:28:37;3.30;99.90
46217;DHT22;47258;59.424;13.482;2023-03-23T01:31:08;3.30;99.90
46217;DHT22;47258;59.424;13.482;2023-03-23T01:33:40;3.30;99.90
46217;DHT22;47258;59.424;13.482;2023-03-23T01:36:11;3.30;99.90
46217;DHT22;47258;59.424;13.482;2023-03-23T01:38:39;3.30;99.90
46217;DHT22;47258;59.424;13.482;2023-03-23T01:41:09;3.30;99.90
46217;DHT22;47258;59.424;13.482;2023-03-23T01:44:00;3.30;99.90
46217;DHT22;47258;59.424;13.482;2023-03-23T01:46:30;3.30;99.90
46217;DHT22;47258;59.424;13.482;2023-03-23T01:48:59;3.40;99.90
46217;DHT22;47258;59.424;13.482;2023-03-23T01:51:34;3.40;99.90
46217;DHT22;47258;59.424;13.482;2023-03-23T01:54:06;3.40;99.90
46217;DHT22;47258;59.424;13.482;2023-03-23T01:56:39;3.40;99.90
46217;DHT22;47258;59.424;13.482;2023-03-23T01:59:11;3.40;99.90
46217;DHT22;47258;59.424;13.482;2023-03-23T02:01:39;3.50;99.90
46217;DHT22;47258;59.424;13.482;2023-03-23T02:04:13;3.50;99.90
46217;DHT22;47258;59.424;13.482;2023-03-23T02:06:41;3.50;99.90
46217;DHT22;47258;59.424;13.482;2023-03-23T02:09:13;3.60;99.90
46217;DHT22;47258;59.424;13.482;2023-03-23T02:11:44;3.60;99.90
46217;DHT22;47258;59.424;13.482;2023-03-23T02:14:13;3.70;99.90
46217;DHT22;47258;59.424;13.482;2023-03-23T02:16:47;3.70;99.90
46217;DHT22;47258;59.424;13.482;2023-03-23T02:19:49;3.80;99.90
46217;DHT22;47258;59.424;13.482;2023-03-23T02:25:59;3.90;99.90
46217;DHT22;47258;59.424;13.482;2023-03-23T02:31:44;3.90;99.90
46217;DHT22;47258;59.424;13.482;2023-03-23T02:34:17;4.00;99.90
46217;DHT22;47258;59.424;13.482;2023-03-23T02:36:49;4.00;99.90
46217;DHT22;47258;59.424;13.482;2023-03-23T02:39:22;4.00;99.90
46217;DHT22;47258;59.424;13.482;2023-03-23T02:41:54;4.10;99.90
46217;DHT22;47258;59.424;13.482;2023-03-23T02:44:24;4.00;99.90
46217;DHT22;47258;59.424;13.482;2023-03-23T02:46:57;4.10;99.90
46217;DHT22;47258;59.424;13.482;2023-03-23T02:49:28;4.10;99.90
46217;DHT22;47258;59.424;13.482;2023-03-23T02:51:59;4.10;99.90
46217;DHT22;47258;59.424;13.482;2023-03-23T02:54:32;4.10;99.90
46217;DHT22;47258;59.424;13.482;2023-03-23T02:57:02;4.20;99.90
46217;DHT22;47258;59.424;13.482;2023-03-23T02:59:30;4.20;99.90
46217;DHT22;47258;59.424;13.482;2023-03-23T03:02:04;4.20;99.90
46217;DHT22;47258;59.424;13.482;2023-03-23T03:04:35;4.20;99.90
46217;DHT22;47258;59.424;13.482;2023-03-23T03:07:35;4.20;99.90
46217;DHT22;47258;59.424;13.482;2023-03-23T03:10:15;4.20;99.90
46217;DHT22;47258;59.424;13.482;2023-03-23T03:12:53;4.20;99.90
46217;DHT22;47258;59.424;13.482;2023-03-23T03:15:29;4.30;99.90
46217;DHT22;47258;59.424;13.482;2023-03-23T03:18:03;4.30;99.90
46217;DHT22;47258;59.424;13.482;2023-03-23T03:20:36;4.30;99.90
46217;DHT22;47258;59.424;13.482;2023-03-23T03:23:08;4.30;99.90
46217;DHT22;47258;59.424;13.482;2023-03-23T03:25:39;4.30;99.90
46217;DHT22;47258;59.424;13.482;2023-03-23T03:28:14;4.30;99.90
46217;DHT22;47258;59.424;13.482;2023-03-23T03:30:43;4.30;99.90
46217;DHT22;47258;59.424;13.482;2023-03-23T03:33:14;4.30;99.90
46217;DHT22;47258;59.424;13.482;2023-03-23T03:35:45;4.30;99.90
46217;DHT22;47258;59.424;13.482;2023-03-23T03:38:13;4.30;99.90
46217;DHT22;47258;59.424;13.482;2023-03-23T03:40:41;4.30;99.90
46217;DHT22;47258;59.424;13.482;2023-03-23T03:43:08;4.20;99.90
46217;DHT22;47258;59.424;13.482;2023-03-23T03:45:37;4.20;99.90
46217;DHT22;47258;59.424;13.482;2023-03-23T03:48:07;4.20;99.90
46217;DHT22;47258;59.424;13.482;2023-03-23T03:50:35;4.20;99.90
46217;DHT22;47258;59.424;13.482;2023-03-23T03:53:06;4.20;99.90
46217;DHT22;47258;59.424;13.482;2023-03-23T03:55:34;4.20;99.90
46217;DHT22;47258;59.424;13.482;2023-03-23T03:58:04;4.20;99.90
46217;DHT22;47258;59.424;13.482;2023-03-23T04:00:33;4.20;99.90
46217;DHT22;47258;59.424;13.482;2023-03-23T04:03:01;4.20;99.90
46217;DHT22;47258;59.424;13.482;2023-03-23T04:05:29;4.20;99.90
46217;DHT22;47258;59.424;13.482;2023-03-23T04:08:00;4.20;99.90
46217;DHT22;47258;59.424;13.482;2023-03-23T04:10:31;4.20;99.90
46217;DHT22;47258;59.424;13.482;2023-03-23T04:12:59;4.20;99.90
46217;DHT22;47258;59.424;13.482;2023-03-23T04:15:28;4.20;99.90
46217;DHT22;47258;59.424;13.482;2023-03-23T04:17:58;4.20;99.90
46217;DHT22;47258;59.424;13.482;2023-03-23T04:20:26;4.20;99.90
46217;DHT22;47258;59.424;13.482;2023-03-23T04:22:53;4.20;99.90
46217;DHT22;47258;59.424;13.482;2023-03-23T04:25:21;4.10;99.90
46217;DHT22;47258;59.424;13.482;2023-03-23T04:27:50;4.10;99.90
46217;DHT22;47258;59.424;13.482;2023-03-23T04:30:19;4.20;99.90
46217;DHT22;47258;59.424;13.482;2023-03-23T04:32:48;4.20;99.90
46217;DHT22;47258;59.424;13.482;2023-03-23T04:35:19;4.20;99.90
46217;DHT22;47258;59.424;13.482;2023-03-23T04:37:47;4.20;99.90
46217;DHT22;47258;59.424;13.482;2023-03-23T04:40:17;4.20;99.90
46217;DHT22;47258;59.424;13.482;2023-03-23T04:42:45;4.20;99.90
46217;DHT22;47258;59.424;13.482;2023-03-23T04:45:18;4.20;99.90
46217;DHT22;47258;59.424;13.482;2023-03-23T04:47:51;4.30;99.90
46217;DHT22;47258;59.424;13.482;2023-03-23T04:50:27;4.20;99.90
46217;DHT22;47258;59.424;13.482;2023-03-23T04:52:56;4.30;99.90
46217;DHT22;47258;59.424;13.482;2023-03-23T04:55:26;4.30;99.90
46217;DHT22;47258;59.424;13.482;2023-03-23T04:57:53;4.30;99.90
46217;DHT22;47258;59.424;13.482;2023-03-23T05:00:25;4.30;99.90
46217;DHT22;47258;59.424;13.482;2023-03-23T05:02:53;4.30;99.90
46217;DHT22;47258;59.424;13.482;2023-03-23T05:05:22;4.30;99.90
46217;DHT22;47258;59.424;13.482;2023-03-23T05:07:51;4.20;99.90
46217;DHT22;47258;59.424;13.482;2023-03-23T05:10:22;4.30;99.90
46217;DHT22;47258;59.424;13.482;2023-03-23T05:12:54;4.20;99.90
46217;DHT22;47258;59.424;13.482;2023-03-23T05:15:23;4.20;99.90
46217;DHT22;47258;59.424;13.482;2023-03-23T05:17:53;4.20;99.90
46217;DHT22;47258;59.424;13.482;2023-03-23T05:20:21;4.20;99.90
46217;DHT22;47258;59.424;13.482;2023-03-23T05:22:51;4.20;99.90
46217;DHT22;47258;59.424;13.482;2023-03-23T05:25:19;4.10;99.90
46217;DHT22;47258;59.424;13.482;2023-03-23T05:27:47;4.10;99.90
46217;DHT22;47258;59.424;13.482;2023-03-23T05:30:19;4.10;99.90
46217;DHT22;47258;59.424;13.482;2023-03-23T05:32:49;4.10;99.90
46217;DHT22;47258;59.424;13.482;2023-03-23T05:35:18;4.10;99.90
46217;DHT22;47258;59.424;13.482;2023-03-23T05:37:46;4.10;99.90
46217;DHT22;47258;59.424;13.482;2023-03-23T05:40:14;4.10;99.90
46217;DHT22;47258;59.424;13.482;2023-03-23T05:42:42;4.10;99.90
46217;DHT22;47258;59.424;13.482;2023-03-23T05:45:12;4.10;99.90
46217;DHT22;47258;59.424;13.482;2023-03-23T05:47:41;4.10;99.90
46217;DHT22;47258;59.424;13.482;2023-03-23T05:50:11;4.10;99.90
46217;DHT22;47258;59.424;13.482;2023-03-23T05:52:40;4.00;99.90
46217;DHT22;47258;59.424;13.482;2023-03-23T05:55:10;4.00;99.90
46217;DHT22;47258;59.424;13.482;2023-03-23T05:57:38;4.00;99.90
46217;DHT22;47258;59.424;13.482;2023-03-23T06:00:09;4.00;99.90
46217;DHT22;47258;59.424;13.482;2023-03-23T06:02:46;4.00;99.90
46217;DHT22;47258;59.424;13.482;2023-03-23T06:05:16;4.00;99.90
46217;DHT22;47258;59.424;13.482;2023-03-23T06:07:44;4.00;99.90
46217;DHT22;47258;59.424;13.482;2023-03-23T06:10:12;4.10;99.90
46217;DHT22;47258;59.424;13.482;2023-03-23T06:12:39;4.10;99.90
46217;DHT22;47258;59.424;13.482;2023-03-23T06:15:10;4.20;99.90
46217;DHT22;47258;59.424;13.482;2023-03-23T06:17:39;4.30;99.90
46217;DHT22;47258;59.424;13.482;2023-03-23T06:20:08;4.30;99.90
46217;DHT22;47258;59.424;13.482;2023-03-23T06:22:39;4.40;99.90
46217;DHT22;47258;59.424;13.482;2023-03-23T06:25:13;4.40;99.90
46217;DHT22;47258;59.424;13.482;2023-03-23T06:27:42;4.40;99.90
46217;DHT22;47258;59.424;13.482;2023-03-23T06:30:12;4.40;99.90
46217;DHT22;47258;59.424;13.482;2023-03-23T06:32:42;4.50;99.90
46217;DHT22;47258;59.424;13.482;2023-03-23T06:35:14;4.60;99.90
46217;DHT22;47258;59.424;13.482;2023-03-23T06:37:48;4.70;99.90
46217;DHT22;47258;59.424;13.482;2023-03-23T06:40:17;4.70;99.90
46217;DHT22;47258;59.424;13.482;2023-03-23T06:42:46;4.70;99.90
46217;DHT22;47258;59.424;13.482;2023-03-23T06:45:14;4.70;99.90
46217;DHT22;47258;59.424;13.482;2023-03-23T06:47:42;4.80;99.90
46217;DHT22;47258;59.424;13.482;2023-03-23T06:50:10;4.90;99.90
46217;DHT22;47258;59.424;13.482;2023-03-23T06:52:38;5.00;99.90
46217;DHT22;47258;59.424;13.482;2023-03-23T06:55:07;5.00;99.90
46217;DHT22;47258;59.424;13.482;2023-03-23T06:57:38;5.00;99.90
46217;DHT22;47258;59.424;13.482;2023-03-23T07:00:09;5.10;99.90
46217;DHT22;47258;59.424;13.482;2023-03-23T07:02:39;5.10;99.90
46217;DHT22;47258;59.424;13.482;2023-03-23T07:05:08;5.10;99.90
46217;DHT22;47258;59.424;13.482;2023-03-23T07:07:36;5.10;99.90
46217;DHT22;47258;59.424;13.482;2023-03-23T07:10:08;5.10;99.90
46217;DHT22;47258;59.424;13.482;2023-03-23T07:12:37;5.20;99.90
46217;DHT22;47258;59.424;13.482;2023-03-23T07:15:06;5.30;99.90
46217;DHT22;47258;59.424;13.482;2023-03-23T07:17:36;5.40;99.90
46217;DHT22;47258;59.424;13.482;2023-03-23T07:20:08;5.50;99.90
46217;DHT22;47258;59.424;13.482;2023-03-23T07:22:38;5.50;99.90
46217;DHT22;47258;59.424;13.482;2023-03-23T07:25:10;5.50;99.90
46217;DHT22;47258;59.424;13.482;2023-03-23T07:27:38;5.60;99.90
46217;DHT22;47258;59.424;13.482;2023-03-23T07:30:07;5.60;99.90
46217;DHT22;47258;59.424;13.482;2023-03-23T07:32:35;5.60;99.90
46217;DHT22;47258;59.424;13.482;2023-03-23T07:35:03;5.60;99.90
46217;DHT22;47258;59.424;13.482;2023-03-23T07:37:31;5.70;99.90
46217;DHT22;47258;59.424;13.482;2023-03-23T07:39:59;5.80;99.90
46217;DHT22;47258;59.424;13.482;2023-03-23T07:42:37;5.90;99.90
46217;DHT22;47258;59.424;13.482;2023-03-23T07:45:07;6.10;99.90
46217;DHT22;47258;59.424;13.482;2023-03-23T07:47:35;6.30;99.90
46217;DHT22;47258;59.424;13.482;2023-03-23T07:50:03;6.50;99.90
46217;DHT22;47258;59.424;13.482;2023-03-23T07:52:33;6.60;99.90
46217;DHT22;47258;59.424;13.482;2023-03-23T07:55:02;6.60;99.90
46217;DHT22;47258;59.424;13.482;2023-03-23T07:57:30;6.50;99.90
46217;DHT22;47258;59.424;13.482;2023-03-23T08:00:00;6.40;99.90
46217;DHT22;47258;59.424;13.482;2023-03-23T08:02:41;6.20;99.90
46217;DHT22;47258;59.424;13.482;2023-03-23T08:05:10;6.20;99.90
46217;DHT22;47258;59.424;13.482;2023-03-23T08:07:39;6.20;99.90
46217;DHT22;47258;59.424;13.482;2023-03-23T08:10:09;6.10;99.90
46217;DHT22;47258;59.424;13.482;2023-03-23T08:12:38;6.10;99.90
46217;DHT22;47258;59.424;13.482;2023-03-23T08:15:10;6.10;99.90
46217;DHT22;47258;59.424;13.482;2023-03-23T08:17:40;6.00;99.90
46217;DHT22;47258;59.424;13.482;2023-03-23T08:20:10;6.00;99.90
46217;DHT22;47258;59.424;13.482;2023-03-23T08:22:39;6.00;99.90
46217;DHT22;47258;59.424;13.482;2023-03-23T08:25:08;6.10;99.90
46217;DHT22;47258;59.424;13.482;2023-03-23T08:27:37;6.00;99.90
46217;DHT22;47258;59.424;13.482;2023-03-23T08:30:12;5.90;99.90
46217;DHT22;47258;59.424;13.482;2023-03-23T08:32:40;5.90;99.90
46217;DHT22;47258;59.424;13.482;2023-03-23T08:35:10;5.80;99.90
46217;DHT22;47258;59.424;13.482;2023-03-23T08:37:38;5.80;99.90
46217;DHT22;47258;59.424;13.482;2023-03-23T08:40:10;5.80;99.90
46217;DHT22;47258;59.424;13.482;2023-03-23T08:42:39;5.70;99.90
46217;DHT22;47258;59.424;13.482;2023-03-23T08:45:14;5.70;99.90
46217;DHT22;47258;59.424;13.482;2023-03-23T08:47:42;5.70;99.90
46217;DHT22;47258;59.424;13.482;2023-03-23T08:50:12;5.70;99.90
46217;DHT22;47258;59.424;13.482;2023-03-23T08:52:40;5.70;99.90
46217;DHT22;47258;59.424;13.482;2023-03-23T08:55:10;5.80;99.90
46217;DHT22;47258;59.424;13.482;2023-03-23T08:57:38;5.80;99.90
46217;DHT22;47258;59.424;13.482;2023-03-23T09:00:08;5.90;99.90
46217;DHT22;47258;59.424;13.482;2023-03-23T09:02:48;6.10;99.90
46217;DHT22;47258;59.424;13.482;2023-03-23T09:05:19;6.20;99.90
46217;DHT22;47258;59.424;13.482;2023-03-23T09:07:50;6.40;99.90
46217;DHT22;47258;59.424;13.482;2023-03-23T09:10:22;6.50;99.90
46217;DHT22;47258;59.424;13.482;2023-03-23T09:12:52;6.60;99.90
46217;DHT22;47258;59.424;13.482;2023-03-23T09:15:21;6.70;99.90
46217;DHT22;47258;59.424;13.482;2023-03-23T09:17:54;6.80;99.90
46217;DHT22;47258;59.424;13.482;2023-03-23T09:20:26;6.90;99.90
46217;DHT22;47258;59.424;13.482;2023-03-23T09:22:57;7.00;99.90
46217;DHT22;47258;59.424;13.482;2023-03-23T09:25:28;7.10;99.90
46217;DHT22;47258;59.424;13.482;2023-03-23T09:28:00;7.00;99.90
46217;DHT22;47258;59.424;13.482;2023-03-23T09:30:33;7.00;99.90
46217;DHT22;47258;59.424;13.482;2023-03-23T09:33:07;7.00;99.90
46217;DHT22;47258;59.424;13.482;2023-03-23T09:35:36;7.10;99.90
46217;DHT22;47258;59.424;13.482;2023-03-23T09:38:10;7.40;99.90
46217;DHT22;47258;59.424;13.482;2023-03-23T09:40:46;7.70;99.90
46217;DHT22;47258;59.424;13.482;2023-03-23T09:43:32;8.00;99.90
46217;DHT22;47258;59.424;13.482;2023-03-23T09:46:14;8.30;99.90
46217;DHT22;47258;59.424;13.482;2023-03-23T09:48:51;8.40;99.90
46217;DHT22;47258;59.424;13.482;2023-03-23T09:51:29;8.40;99.90
46217;DHT22;47258;59.424;13.482;2023-03-23T09:54:03;8.50;99.90
46217;DHT22;47258;59.424;13.482;2023-03-23T09:56:34;8.30;99.90
46217;DHT22;47258;59.424;13.482;2023-03-23T09:59:11;8.20;99.90
46217;DHT22;47258;59.424;13.482;2023-03-23T10:01:45;8.10;99.90
46217;DHT22;47258;59.424;13.482;2023-03-23T10:04:30;8.00;99.90
46217;DHT22;47258;59.424;13.482;2023-03-23T10:07:09;7.80;99.90
46217;DHT22;47258;59.424;13.482;2023-03-23T10:09:42;7.90;99.90
46217;DHT22;47258;59.424;13.482;2023-03-23T10:12:18;8.10;99.90
46217;DHT22;47258;59.424;13.482;2023-03-23T10:15:04;8.20;99.90
46217;DHT22;47258;59.424;13.482;2023-03-23T10:17:42;8.40;99.90
46217;DHT22;47258;59.424;13.482;2023-03-23T10:20:33;8.60;99.90
46217;DHT22;47258;59.424;13.482;2023-03-23T10:23:12;8.80;99.90
46217;DHT22;47258;59.424;13.482;2023-03-23T10:25:48;8.80;99.90
46217;DHT22;47258;59.424;13.482;2023-03-23T10:28:35;8.80;99.90
46217;DHT22;47258;59.424;13.482;2023-03-23T10:31:08;8.70;99.90
46217;DHT22;47258;59.424;13.482;2023-03-23T10:33:40;8.60;99.90
46217;DHT22;47258;59.424;13.482;2023-03-23T10:36:17;8.40;99.90
46217;DHT22;47258;59.424;13.482;2023-03-23T10:38:49;8.30;99.90
46217;DHT22;47258;59.424;13.482;2023-03-23T10:41:20;8.20;99.90
46217;DHT22;47258;59.424;13.482;2023-03-23T10:43:48;8.20;99.90
46217;DHT22;47258;59.424;13.482;2023-03-23T10:46:27;8.20;99.90
46217;DHT22;47258;59.424;13.482;2023-03-23T10:48:59;8.20;99.90
46217;DHT22;47258;59.424;13.482;2023-03-23T10:51:35;8.30;99.90
46217;DHT22;47258;59.424;13.482;2023-03-23T10:54:05;8.40;99.90
46217;DHT22;47258;59.424;13.482;2023-03-23T10:56:39;8.60;99.90
46217;DHT22;47258;59.424;13.482;2023-03-23T10:59:19;8.70;99.90
46217;DHT22;47258;59.424;13.482;2023-03-23T11:01:48;8.80;99.90
46217;DHT22;47258;59.424;13.482;2023-03-23T11:04:20;8.90;99.90
46217;DHT22;47258;59.424;13.482;2023-03-23T11:06:58;8.90;99.90
46217;DHT22;47258;59.424;13.482;2023-03-23T11:09:35;8.90;99.90
46217;DHT22;47258;59.424;13.482;2023-03-23T11:12:04;9.00;99.90
46217;DHT22;47258;59.424;13.482;2023-03-23T11:14:36;9.10;99.90
46217;DHT22;47258;59.424;13.482;2023-03-23T11:17:19;9.00;99.90
46217;DHT22;47258;59.424;13.482;2023-03-23T11:19:48;8.80;99.90
46217;DHT22;47258;59.424;13.482;2023-03-23T11:22:25;8.70;99.90
46217;DHT22;47258;59.424;13.482;2023-03-23T11:24:59;8.60;99.90
46217;DHT22;47258;59.424;13.482;2023-03-23T11:27:27;8.50;99.90
46217;DHT22;47258;59.424;13.482;2023-03-23T11:29:56;8.40;99.90
46217;DHT22;47258;59.424;13.482;2023-03-23T11:32:28;8.30;99.90
46217;DHT22;47258;59.424;13.482;2023-03-23T11:34:58;8.20;99.90
46217;DHT22;47258;59.424;13.482;2023-03-23T11:37:32;8.10;99.90
46217;DHT22;47258;59.424;13.482;2023-03-23T11:40:02;8.00;99.90
46217;DHT22;47258;59.424;13.482;2023-03-23T11:42:42;7.90;99.90
46217;DHT22;47258;59.424;13.482;2023-03-23T11:45:18;7.90;99.90
46217;DHT22;47258;59.424;13.482;2023-03-23T11:47:55;7.80;99.90
46217;DHT22;47258;59.424;13.482;2023-03-23T11:50:25;7.70;99.90
46217;DHT22;47258;59.424;13.482;2023-03-23T11:53:00;7.70;99.90
46217;DHT22;47258;59.424;13.482;2023-03-23T11:55:33;7.70;99.90
46217;DHT22;47258;59.424;13.482;2023-03-23T11:58:09;7.60;99.90
46217;DHT22;47258;59.424;13.482;2023-03-23T12:00:42;7.60;99.90
46217;DHT22;47258;59.424;13.482;2023-03-23T12:03:26;7.60;99.90
46217;DHT22;47258;59.424;13.482;2023-03-23T12:06:02;7.60;99.90
46217;DHT22;47258;59.424;13.482;2023-03-23T12:08:51;7.60;99.90
46217;DHT22;47258;59.424;13.482;2023-03-23T12:11:27;7.70;99.90
46217;DHT22;47258;59.424;13.482;2023-03-23T12:14:14;7.70;99.90
46217;DHT22;47258;59.424;13.482;2023-03-23T12:16:52;7.80;99.90
46217;DHT22;47258;59.424;13.482;2023-03-23T12:19:27;7.80;99.90
46217;DHT22;47258;59.424;13.482;2023-03-23T12:22:09;7.80;99.90
46217;DHT22;47258;59.424;13.482;2023-03-23T12:24:51;7.80;99.90
46217;DHT22;47258;59.424;13.482;2023-03-23T12:27:25;7.80;99.90
46217;DHT22;47258;59.424;13.482;2023-03-23T12:30:16;7.70;99.90
46217;DHT22;47258;59.424;13.482;2023-03-23T12:32:56;7.60;99.90
46217;DHT22;47258;59.424;13.482;2023-03-23T12:35:34;7.70;99.90
46217;DHT22;47258;59.424;13.482;2023-03-23T12:38:15;7.80;99.90
46217;DHT22;47258;59.424;13.482;2023-03-23T12:41:02;8.00;99.90
46217;DHT22;47258;59.424;13.482;2023-03-23T12:43:38;8.20;99.90
46217;DHT22;47258;59.424;13.482;2023-03-23T12:46:21;8.30;99.90
46217;DHT22;47258;59.424;13.482;2023-03-23T12:48:56;8.40;99.90
46217;DHT22;47258;59.424;13.482;2023-03-23T12:51:31;8.40;99.90
46217;DHT22;47258;59.424;13.482;2023-03-23T12:54:12;8.40;99.90
46217;DHT22;47258;59.424;13.482;2023-03-23T12:56:48;8.50;99.90
46217;DHT22;47258;59.424;13.482;2023-03-23T12:59:22;8.50;99.90
46217;DHT22;47258;59.424;13.482;2023-03-23T13:01:56;8.60;99.90
46217;DHT22;47258;59.424;13.482;2023-03-23T13:04:29;8.70;99.90
46217;DHT22;47258;59.424;13.482;2023-03-23T13:06:59;8.90;99.90
46217;DHT22;47258;59.424;13.482;2023-03-23T13:09:32;9.00;99.90
46217;DHT22;47258;59.424;13.482;2023-03-23T13:12:04;9.10;99.90
46217;DHT22;47258;59.424;13.482;2023-03-23T13:14:40;9.20;99.90
46217;DHT22;47258;59.424;13.482;2023-03-23T13:17:20;9.30;99.90
46217;DHT22;47258;59.424;13.482;2023-03-23T13:20:00;9.20;99.90
46217;DHT22;47258;59.424;13.482;2023-03-23T13:22:37;9.20;99.90
46217;DHT22;47258;59.424;13.482;2023-03-23T13:25:08;9.10;99.90
46217;DHT22;47258;59.424;13.482;2023-03-23T13:27:41;9.00;99.90
46217;DHT22;47258;59.424;13.482;2023-03-23T13:30:20;9.00;99.90
46217;DHT22;47258;59.424;13.482;2023-03-23T13:32:50;9.00;99.90
46217;DHT22;47258;59.424;13.482;2023-03-23T13:35:19;9.00;99.90
46217;DHT22;47258;59.424;13.482;2023-03-23T13:37:49;9.10;99.90
46217;DHT22;47258;59.424;13.482;2023-03-23T13:40:25;9.20;99.90
46217;DHT22;47258;59.424;13.482;2023-03-23T13:42:56;9.30;99.90
46217;DHT22;47258;59.424;13.482;2023-03-23T13:45:36;9.30;99.90
46217;DHT22;47258;59.424;13.482;2023-03-23T13:48:20;9.20;99.90
46217;DHT22;47258;59.424;13.482;2023-03-23T13:50:53;9.30;99.90
46217;DHT22;47258;59.424;13.482;2023-03-23T13:53:26;9.20;99.90
46217;DHT22;47258;59.424;13.482;2023-03-23T13:56:06;9.20;99.90
46217;DHT22;47258;59.424;13.482;2023-03-23T13:58:47;9.10;99.90
46217;DHT22;47258;59.424;13.482;2023-03-23T14:01:16;9.00;99.90
46217;DHT22;47258;59.424;13.482;2023-03-23T14:03:47;9.00;99.90
46217;DHT22;47258;59.424;13.482;2023-03-23T14:06:18;9.00;99.90
46217;DHT22;47258;59.424;13.482;2023-03-23T14:08:49;9.10;99.90
46217;DHT22;47258;59.424;13.482;2023-03-23T14:11:20;9.00;99.90
46217;DHT22;47258;59.424;13.482;2023-03-23T14:14:00;9.10;99.90
46217;DHT22;47258;59.424;13.482;2023-03-23T14:16:35;9.10;99.90
46217;DHT22;47258;59.424;13.482;2023-03-23T14:19:04;9.10;99.90
46217;DHT22;47258;59.424;13.482;2023-03-23T14:21:41;9.10;99.90
46217;DHT22;47258;59.424;13.482;2023-03-23T14:24:12;9.20;99.90
46217;DHT22;47258;59.424;13.482;2023-03-23T14:26:39;9.20;99.90
46217;DHT22;47258;59.424;13.482;2023-03-23T14:29:11;9.10;99.90
46217;DHT22;47258;59.424;13.482;2023-03-23T14:31:39;9.10;99.90
46217;DHT22;47258;59.424;13.482;2023-03-23T14:34:13;9.00;99.90
46217;DHT22;47258;59.424;13.482;2023-03-23T14:36:41;9.00;99.90
46217;DHT22;47258;59.424;13.482;2023-03-23T14:39:17;8.90;99.90
46217;DHT22;47258;59.424;13.482;2023-03-23T14:41:44;8.90;99.90
46217;DHT22;47258;59.424;13.482;2023-03-23T14:44:16;8.90;99.90
46217;DHT22;47258;59.424;13.482;2023-03-23T14:46:44;8.90;99.90
46217;DHT22;47258;59.424;13.482;2023-03-23T14:49:16;8.80;99.90
46217;DHT22;47258;59.424;13.482;2023-03-23T14:51:48;8.80;99.90
46217;DHT22;47258;59.424;13.482;2023-03-23T14:54:21;8.70;99.90
46217;DHT22;47258;59.424;13.482;2023-03-23T14:56:49;8.70;99.90
46217;DHT22;47258;59.424;13.482;2023-03-23T14:59:18;8.60;99.90
46217;DHT22;47258;59.424;13.482;2023-03-23T15:01:47;8.60;99.90
46217;DHT22;47258;59.424;13.482;2023-03-23T15:04:18;8.50;99.90
46217;DHT22;47258;59.424;13.482;2023-03-23T15:06:48;8.40;99.90
46217;DHT22;47258;59.424;13.482;2023-03-23T15:09:19;8.40;99.90
46217;DHT22;47258;59.424;13.482;2023-03-23T15:11:53;8.40;99.90
46217;DHT22;47258;59.424;13.482;2023-03-23T15:14:26;8.30;99.90
46217;DHT22;47258;59.424;13.482;2023-03-23T15:16:55;8.30;99.90
46217;DHT22;47258;59.424;13.482;2023-03-23T15:19:24;8.20;99.90
46217;DHT22;47258;59.424;13.482;2023-03-23T15:21:53;8.10;99.90
46217;DHT22;47258;59.424;13.482;2023-03-23T15:24:26;8.00;99.90
46217;DHT22;47258;59.424;13.482;2023-03-23T15:27:02;7.90;99.90
46217;DHT22;47258;59.424;13.482;2023-03-23T15:29:31;7.90;99.90
46217;DHT22;47258;59.424;13.482;2023-03-23T15:31:58;7.80;99.90
46217;DHT22;47258;59.424;13.482;2023-03-23T15:34:31;7.80;99.90
46217;DHT22;47258;59.424;13.482;2023-03-23T15:37:00;7.80;99.90
46217;DHT22;47258;59.424;13.482;2023-03-23T15:39:29;7.80;99.90
46217;DHT22;47258;59.424;13.482;2023-03-23T15:41:57;7.80;99.90
46217;DHT22;47258;59.424;13.482;2023-03-23T15:44:27;7.80;99.90
46217;DHT22;47258;59.424;13.482;2023-03-23T15:47:13;7.70;99.90
46217;DHT22;47258;59.424;13.482;2023-03-23T15:49:41;7.80;99.90
46217;DHT22;47258;59.424;13.482;2023-03-23T15:52:09;7.80;99.90
46217;DHT22;47258;59.424;13.482;2023-03-23T15:54:37;7.80;99.90
46217;DHT22;47258;59.424;13.482;2023-03-23T15:57:05;7.70;99.90
46217;DHT22;47258;59.424;13.482;2023-03-23T15:59:32;7.70;99.90
46217;DHT22;47258;59.424;13.482;2023-03-23T16:01:59;7.70;99.90
46217;DHT22;47258;59.424;13.482;2023-03-23T16:04:28;7.70;99.90
46217;DHT22;47258;59.424;13.482;2023-03-23T16:06:56;7.60;99.90